Time;durP1;ratioP1;P1;durP2;ratioP2;P2;SDS_P1;SDS_P2;PMS_P1;PMS_P2;Temp;Humidity;BMP_temperature;BMP_pressure;BME280_temperature;BME280_humidity;BME280_pressure;Samples;Min_cycle;Max_cycle;Signal;HPM_P1;HPM_P2
2023/05/17 00:00:53;;;;;;;7.60;1.87;;;9.00;98.70;;;;;;5045555;28;20418;-70
2023/05/17 00:03:39;;;;;;;4.50;2.10;;;9.00;98.30;;;;;;5046287;28;20497;-71
2023/05/17 00:06:25;;;;;;;6.50;2.00;;;9.00;98.30;;;;;;5038874;28;20426;-70
2023/05/17 00:09:10;;;;;;;3.50;1.93;;;8.90;98.20;;;;;;5043242;28;20427;-70
2023/05/17 00:11:57;;;;;;;4.23;2.00;;;8.90;98.10;;;;;;5043470;28;20473;-70
2023/05/17 00:14:43;;;;;;;5.37;2.13;;;8.90;98.30;;;;;;5045213;28;20455;-70
2023/05/17 00:17:28;;;;;;;5.67;1.70;;;8.90;98.30;;;;;;5055012;28;20659;-71
2023/05/17 00:20:14;;;;;;;3.90;1.83;;;8.80;98.70;;;;;;5046268;28;20414;-70
2023/05/17 00:22:59;;;;;;;7.23;1.93;;;8.70;99.00;;;;;;5049219;28;20473;-71
2023/05/17 00:25:45;;;;;;;3.63;1.70;;;8.70;99.50;;;;;;5043298;28;20426;-71
2023/05/17 00:28:32;;;;;;;3.50;2.17;;;8.70;99.90;;;;;;5054100;28;20936;-70
2023/05/17 00:31:17;;;;;;;6.33;2.10;;;8.70;99.90;;;;;;5048400;28;20449;-71
2023/05/17 00:34:03;;;;;;;6.23;1.87;;;8.60;99.50;;;;;;5047530;28;20430;-70
2023/05/17 00:36:49;;;;;;;5.30;1.67;;;8.50;99.60;;;;;;5051604;28;20578;-70
2023/05/17 00:39:34;;;;;;;14.37;2.47;;;8.40;99.90;;;;;;5053246;28;20478;-71
2023/05/17 00:42:20;;;;;;;3.20;1.77;;;8.50;99.90;;;;;;5049767;28;20479;-71
2023/05/17 00:45:08;;;;;;;4.97;1.87;;;8.50;99.90;;;;;;5044495;28;20440;-71
2023/05/17 00:47:53;;;;;;;3.63;1.67;;;8.50;99.90;;;;;;5045677;28;20423;-70
2023/05/17 00:50:39;;;;;;;7.13;2.53;;;8.50;99.90;;;;;;5045357;28;20798;-71
2023/05/17 00:53:27;;;;;;;7.20;2.37;;;8.40;99.90;;;;;;5049270;28;20555;-70
2023/05/17 00:56:13;;;;;;;5.13;1.87;;;8.40;99.90;;;;;;5040730;28;21419;-70
2023/05/17 00:58:58;;;;;;;4.03;2.00;;;8.30;99.90;;;;;;5041673;28;20944;-70
2023/05/17 01:01:45;;;;;;;3.50;2.00;;;8.30;99.90;;;;;;5043296;28;20517;-70
2023/05/17 01:04:31;;;;;;;7.13;2.10;;;8.40;99.90;;;;;;5040502;28;20491;-70
2023/05/17 01:07:17;;;;;;;5.13;2.07;;;8.40;99.90;;;;;;5042315;28;20436;-71
2023/05/17 01:10:02;;;;;;;4.03;2.07;;;8.30;99.90;;;;;;5044367;28;20780;-71
2023/05/17 01:12:58;;;;;;;11.23;2.70;;;8.30;99.90;;;;;;5043146;28;20805;-71
2023/05/17 01:15:49;;;;;;;13.43;2.30;;;8.10;99.90;;;;;;5037283;28;20916;-71
2023/05/17 01:18:44;;;;;;;6.00;2.37;;;8.00;99.90;;;;;;5047975;28;20810;-71
2023/05/17 01:21:37;;;;;;;8.00;2.00;;;8.00;99.90;;;;;;5050935;28;20424;-70
2023/05/17 01:24:28;;;;;;;7.90;2.07;;;8.00;99.90;;;;;;5049040;28;20585;-70
2023/05/17 01:27:15;;;;;;;5.90;2.00;;;8.00;99.90;;;;;;5040020;28;20448;-70
2023/05/17 01:30:02;;;;;;;14.97;2.80;;;8.10;99.90;;;;;;5043833;28;20416;-71
2023/05/17 01:32:47;;;;;;;8.37;2.17;;;8.10;99.90;;;;;;5045201;28;20937;-71
2023/05/17 01:35:33;;;;;;;3.20;1.80;;;8.10;99.90;;;;;;5043954;28;20467;-71
2023/05/17 01:38:18;;;;;;;4.80;2.70;;;7.90;99.90;;;;;;5040963;28;20443;-71
2023/05/17 01:41:10;;;;;;;7.00;2.30;;;8.00;99.90;;;;;;5043148;28;20444;-70
2023/05/17 01:44:04;;;;;;;4.10;2.30;;;8.00;99.90;;;;;;5039714;28;20455;-70
2023/05/17 01:46:54;;;;;;;2.90;1.80;;;8.00;99.90;;;;;;5043234;28;21132;-70
2023/05/17 01:49:41;;;;;;;6.40;2.30;;;7.90;99.90;;;;;;5042141;28;20453;-70
2023/05/17 01:52:31;;;;;;;4.43;2.33;;;7.90;99.90;;;;;;5039889;28;20487;-70
2023/05/17 01:55:24;;;;;;;4.13;1.87;;;7.80;99.90;;;;;;5040965;28;20456;-70
2023/05/17 01:58:11;;;;;;;6.30;2.20;;;7.80;99.90;;;;;;5044846;28;20426;-71
2023/05/17 02:01:01;;;;;;;4.17;1.93;;;7.80;99.90;;;;;;5037710;28;20787;-70
2023/05/17 02:03:48;;;;;;;6.47;2.00;;;7.80;99.90;;;;;;5039813;28;21558;-71
2023/05/17 02:06:33;;;;;;;5.77;2.03;;;7.70;99.90;;;;;;5040622;28;20491;-70
2023/05/17 02:09:18;;;;;;;7.10;2.20;;;7.80;99.90;;;;;;5042381;28;20456;-70
2023/05/17 02:12:05;;;;;;;6.07;2.43;;;7.80;99.90;;;;;;5041438;28;20468;-71
2023/05/17 02:14:50;;;;;;;3.83;2.40;;;7.80;99.90;;;;;;5041751;28;20485;-70
2023/05/17 02:17:38;;;;;;;7.07;2.40;;;7.90;99.90;;;;;;5041973;28;20425;-71
2023/05/17 02:20:23;;;;;;;4.27;1.70;;;7.80;99.90;;;;;;5039238;28;20739;-70
2023/05/17 02:23:09;;;;;;;6.37;2.70;;;7.80;99.90;;;;;;5043560;28;20468;-70
2023/05/17 02:25:55;;;;;;;5.53;2.23;;;7.80;99.90;;;;;;5041331;28;20911;-71
2023/05/17 02:28:40;;;;;;;5.70;2.10;;;7.80;99.90;;;;;;5042741;28;20451;-71
2023/05/17 02:31:26;;;;;;;4.17;1.80;;;7.90;99.90;;;;;;5043450;28;20471;-70
2023/05/17 02:34:12;;;;;;;7.90;2.27;;;7.90;99.90;;;;;;5035524;28;20537;-70
2023/05/17 02:36:58;;;;;;;8.47;2.70;;;7.70;99.90;;;;;;5041584;28;20434;-71
2023/05/17 02:39:43;;;;;;;7.43;1.97;;;7.70;99.90;;;;;;5038449;28;20395;-71
2023/05/17 02:42:29;;;;;;;5.17;2.47;;;7.80;99.90;;;;;;5042479;28;20470;-71
2023/05/17 02:45:15;;;;;;;3.90;2.43;;;7.80;99.90;;;;;;5039953;28;20925;-71
2023/05/17 02:48:00;;;;;;;6.00;2.67;;;7.90;99.90;;;;;;5040875;28;20792;-71
2023/05/17 02:50:47;;;;;;;4.53;2.20;;;7.80;99.90;;;;;;5043808;28;20415;-71
2023/05/17 02:53:32;;;;;;;3.60;2.00;;;7.80;99.90;;;;;;5042769;28;20452;-70
2023/05/17 02:56:18;;;;;;;5.77;2.03;;;7.70;99.90;;;;;;5041245;28;20452;-70
2023/05/17 02:59:03;;;;;;;7.40;2.53;;;7.70;99.90;;;;;;5044229;28;20421;-71
2023/05/17 03:01:49;;;;;;;6.37;2.40;;;7.60;99.90;;;;;;5043068;28;20528;-71
2023/05/17 03:04:34;;;;;;;9.47;2.20;;;7.60;99.90;;;;;;5043417;28;20453;-71
2023/05/17 03:07:21;;;;;;;4.53;2.17;;;7.60;99.90;;;;;;5044728;28;20427;-71
2023/05/17 03:10:07;;;;;;;3.60;2.00;;;7.70;99.90;;;;;;5045404;28;21114;-71
2023/05/17 03:12:52;;;;;;;4.27;2.70;;;7.70;99.90;;;;;;5043728;28;20455;-71
2023/05/17 03:15:38;;;;;;;4.10;2.30;;;7.70;99.90;;;;;;5048604;28;20446;-71
2023/05/17 03:18:23;;;;;;;4.90;1.80;;;7.80;99.90;;;;;;5045401;28;20771;-71
2023/05/17 03:21:09;;;;;;;6.67;2.60;;;7.70;99.90;;;;;;5043860;28;20819;-70
2023/05/17 03:23:56;;;;;;;4.83;2.83;;;7.70;99.90;;;;;;5050023;28;20544;-71
2023/05/17 03:26:42;;;;;;;5.93;2.50;;;7.60;99.90;;;;;;5041168;28;20448;-70
2023/05/17 03:29:27;;;;;;;5.37;2.40;;;7.60;99.90;;;;;;5037931;28;20479;-70
2023/05/17 03:32:13;;;;;;;5.73;2.50;;;7.60;99.90;;;;;;5047533;28;20477;-70
2023/05/17 03:34:58;;;;;;;5.73;2.20;;;7.50;99.90;;;;;;5049885;28;20802;-71
2023/05/17 03:37:44;;;;;;;4.10;2.50;;;7.40;99.90;;;;;;5051664;28;20441;-70
2023/05/17 03:40:31;;;;;;;3.70;2.40;;;7.40;99.90;;;;;;5048403;28;20557;-70
2023/05/17 03:43:16;;;;;;;5.37;3.17;;;7.60;99.90;;;;;;5050712;28;20541;-71
2023/05/17 03:46:02;;;;;;;7.53;2.70;;;7.50;99.90;;;;;;5045453;28;22173;-70
2023/05/17 03:48:48;;;;;;;7.30;2.33;;;7.60;99.90;;;;;;5048481;28;20456;-70
2023/05/17 03:51:33;;;;;;;6.93;2.87;;;7.60;99.90;;;;;;5051703;28;20528;-70
2023/05/17 03:54:19;;;;;;;5.23;2.77;;;7.50;99.90;;;;;;5048744;28;20419;-70
2023/05/17 03:57:06;;;;;;;8.57;3.70;;;7.50;99.90;;;;;;5046791;28;20443;-71
2023/05/17 03:59:51;;;;;;;4.40;2.20;;;7.60;99.90;;;;;;5047047;28;20963;-70
2023/05/17 04:02:37;;;;;;;5.27;2.50;;;7.60;99.90;;;;;;5045779;28;20482;-70
2023/05/17 04:05:22;;;;;;;9.60;2.70;;;7.60;99.90;;;;;;5048201;28;20472;-70
2023/05/17 04:08:08;;;;;;;8.53;2.40;;;7.50;99.90;;;;;;5044938;28;20469;-71
2023/05/17 04:10:53;;;;;;;2.70;2.10;;;7.40;99.90;;;;;;5044970;28;20424;-71
2023/05/17 04:13:41;;;;;;;4.77;2.60;;;7.50;99.90;;;;;;5039176;28;20517;-70
2023/05/17 04:16:26;;;;;;;6.50;2.87;;;7.50;99.90;;;;;;5056470;28;20850;-71
2023/05/17 04:19:12;;;;;;;3.70;2.80;;;7.50;99.90;;;;;;5053570;28;20477;-70
2023/05/17 04:21:58;;;;;;;5.80;3.17;;;7.60;99.90;;;;;;5050057;28;20527;-71
2023/05/17 04:24:43;;;;;;;10.20;2.87;;;7.70;99.90;;;;;;5046127;28;20599;-71
2023/05/17 04:27:28;;;;;;;6.87;3.10;;;7.80;99.90;;;;;;5050748;28;20677;-71
2023/05/17 04:30:15;;;;;;;6.50;2.70;;;7.90;99.90;;;;;;5054697;28;20447;-71
2023/05/17 04:33:01;;;;;;;5.93;3.30;;;7.90;99.90;;;;;;5053153;28;20437;-71
2023/05/17 04:35:47;;;;;;;4.20;2.70;;;7.90;99.90;;;;;;5049396;28;20453;-71
2023/05/17 04:38:32;;;;;;;6.30;3.10;;;8.00;99.90;;;;;;5044651;28;20441;-71
2023/05/17 04:41:17;;;;;;;9.40;4.80;;;8.00;99.90;;;;;;5048650;28;20957;-70
2023/05/17 04:44:03;;;;;;;8.77;2.57;;;8.10;99.90;;;;;;5053799;28;20504;-70
2023/05/17 04:46:50;;;;;;;4.93;2.70;;;8.20;99.90;;;;;;5052055;28;20444;-70
2023/05/17 04:49:36;;;;;;;5.27;2.60;;;8.20;99.90;;;;;;5047765;28;20434;-70
2023/05/17 04:52:21;;;;;;;9.10;3.83;;;8.20;99.90;;;;;;5043830;28;20559;-70
2023/05/17 04:55:07;;;;;;;6.97;3.20;;;8.20;99.90;;;;;;5045237;28;20487;-70
2023/05/17 04:57:53;;;;;;;9.40;3.17;;;8.20;99.90;;;;;;5046664;28;20414;-70
2023/05/17 05:00:38;;;;;;;7.87;3.60;;;8.30;99.90;;;;;;5047708;28;20838;-70
2023/05/17 05:03:26;;;;;;;6.23;3.63;;;8.40;99.90;;;;;;5047684;28;20463;-71
2023/05/17 05:06:11;;;;;;;8.33;4.30;;;8.50;99.90;;;;;;5048231;28;20932;-72
2023/05/17 05:08:56;;;;;;;3.70;2.70;;;8.50;99.90;;;;;;5045976;28;20562;-73
2023/05/17 05:11:42;;;;;;;10.20;3.80;;;8.60;99.90;;;;;;5042196;28;20490;-72
2023/05/17 05:14:28;;;;;;;4.77;3.13;;;8.70;99.90;;;;;;5049360;28;20440;-72
2023/05/17 05:17:13;;;;;;;6.90;3.30;;;8.90;99.90;;;;;;5048339;28;20423;-72
2023/05/17 05:20:00;;;;;;;8.70;3.50;;;8.90;99.90;;;;;;5053906;28;20636;-72
2023/05/17 05:22:45;;;;;;;8.73;3.73;;;9.00;99.90;;;;;;5045890;28;20533;-72
2023/05/17 05:25:31;;;;;;;6.10;3.10;;;9.20;99.90;;;;;;5046616;28;20996;-73
2023/05/17 05:28:16;;;;;;;7.37;3.63;;;9.30;99.90;;;;;;5049291;28;21237;-73
2023/05/17 05:31:02;;;;;;;8.70;3.50;;;9.40;99.90;;;;;;5048098;28;20419;-73
2023/05/17 05:33:48;;;;;;;7.10;2.90;;;9.60;99.90;;;;;;5045780;28;20590;-73
2023/05/17 05:36:35;;;;;;;7.30;2.93;;;9.70;99.90;;;;;;5047383;28;20445;-73
2023/05/17 05:39:20;;;;;;;10.80;3.90;;;9.80;99.90;;;;;;5050612;28;20858;-72
2023/05/17 05:42:06;;;;;;;7.60;3.57;;;9.90;99.90;;;;;;5041698;28;20997;-72
2023/05/17 05:44:51;;;;;;;13.67;3.73;;;10.00;99.90;;;;;;5050673;28;20446;-73
2023/05/17 05:47:37;;;;;;;9.40;3.37;;;10.10;99.90;;;;;;5048935;28;20443;-73
2023/05/17 05:50:23;;;;;;;6.80;3.77;;;10.20;99.90;;;;;;5044226;28;20517;-72
2023/05/17 05:53:10;;;;;;;8.07;4.40;;;10.30;99.90;;;;;;5036676;28;20468;-73
2023/05/17 05:55:55;;;;;;;10.17;3.70;;;10.50;99.90;;;;;;5046120;28;20418;-73
2023/05/17 05:58:40;;;;;;;14.20;4.57;;;10.50;99.90;;;;;;5045346;28;20451;-72
2023/05/17 06:01:27;;;;;;;12.83;4.50;;;10.70;99.90;;;;;;5044357;28;20474;-73
2023/05/17 06:04:12;;;;;;;6.43;3.70;;;10.80;99.90;;;;;;5038941;28;20514;-73
2023/05/17 06:06:58;;;;;;;5.10;3.30;;;10.80;99.90;;;;;;5046506;28;20427;-73
2023/05/17 06:09:45;;;;;;;6.80;4.00;;;10.90;99.90;;;;;;5045893;28;20418;-73
2023/05/17 06:12:30;;;;;;;8.80;3.50;;;10.90;99.90;;;;;;5041723;28;20451;-73
2023/05/17 06:15:16;;;;;;;7.90;4.07;;;11.00;99.90;;;;;;5046094;28;20434;-73
2023/05/17 06:18:01;;;;;;;8.10;3.13;;;11.00;99.90;;;;;;5046178;28;20440;-72
2023/05/17 06:20:47;;;;;;;11.40;4.30;;;11.10;99.90;;;;;;5047320;28;20420;-73
2023/05/17 06:23:32;;;;;;;9.87;4.37;;;11.30;99.90;;;;;;5042599;28;20469;-73
2023/05/17 06:26:19;;;;;;;9.17;4.23;;;11.40;99.80;;;;;;5051045;28;20521;-72
2023/05/17 06:29:04;;;;;;;11.27;3.60;;;11.50;99.90;;;;;;5044633;28;20504;-73
2023/05/17 06:31:50;;;;;;;7.07;3.63;;;11.60;99.70;;;;;;5039155;28;20479;-72
2023/05/17 06:34:35;;;;;;;10.20;3.70;;;11.60;99.90;;;;;;5047946;28;20407;-72
2023/05/17 06:37:21;;;;;;;6.07;3.63;;;11.60;98.50;;;;;;5039438;28;20454;-70
2023/05/17 06:40:09;;;;;;;7.57;3.37;;;11.60;97.90;;;;;;5038341;28;20448;-71
2023/05/17 06:42:55;;;;;;;12.03;4.47;;;11.60;96.10;;;;;;5040533;28;20497;-72
2023/05/17 06:45:41;;;;;;;11.03;3.93;;;11.70;95.40;;;;;;5041919;28;20493;-74
2023/05/17 06:48:26;;;;;;;17.00;3.97;;;11.70;96.20;;;;;;5044400;28;20543;-72
2023/05/17 06:51:12;;;;;;;7.13;3.17;;;11.80;97.20;;;;;;5045122;28;21064;-74
2023/05/17 06:53:57;;;;;;;6.10;3.40;;;11.90;94.70;;;;;;5048233;28;20520;-73
2023/05/17 06:56:44;;;;;;;11.00;4.03;;;11.90;94.10;;;;;;5043747;28;20475;-71
2023/05/17 06:59:30;;;;;;;10.17;3.53;;;12.00;94.10;;;;;;5046403;28;20449;-74
2023/05/17 07:02:16;;;;;;;8.13;4.17;;;11.90;92.60;;;;;;5041272;28;20488;-72
2023/05/17 07:05:02;;;;;;;9.87;3.63;;;12.00;93.00;;;;;;5042469;28;21052;-73
2023/05/17 07:07:47;;;;;;;17.83;3.80;;;12.10;92.20;;;;;;5042906;28;20419;-72
2023/05/17 07:10:32;;;;;;;7.47;3.80;;;12.20;90.70;;;;;;5042646;28;21823;-71
2023/05/17 07:13:18;;;;;;;9.63;3.50;;;12.30;87.80;;;;;;5038691;28;20469;-71
2023/05/17 07:16:07;;;;;;;8.07;3.87;;;12.50;90.80;;;;;;5042560;28;20410;-70
2023/05/17 07:18:53;;;;;;;12.80;3.90;;;12.70;88.50;;;;;;5046845;28;20413;-73
2023/05/17 07:21:38;;;;;;;16.33;3.60;;;12.80;89.50;;;;;;5041896;28;20469;-74
2023/05/17 07:24:23;;;;;;;10.90;3.77;;;12.90;84.80;;;;;;5038121;28;20821;-73
2023/05/17 07:27:09;;;;;;;14.00;3.27;;;12.90;79.30;;;;;;5042647;28;20431;-72
2023/05/17 07:29:54;;;;;;;6.60;3.97;;;13.10;80.50;;;;;;5047383;28;20424;-73
2023/05/17 07:32:41;;;;;;;7.47;3.57;;;13.20;78.60;;;;;;5042669;28;20459;-73
2023/05/17 07:35:27;;;;;;;8.33;4.00;;;13.30;77.40;;;;;;5049564;28;20440;-73
2023/05/17 07:38:12;;;;;;;6.67;2.67;;;13.50;78.10;;;;;;5050031;28;20937;-73
2023/05/17 07:40:58;;;;;;;16.87;4.33;;;13.50;78.60;;;;;;5046423;28;20510;-73
2023/05/17 07:43:43;;;;;;;7.50;3.70;;;13.70;73.40;;;;;;5038142;28;20933;-73
2023/05/17 07:46:29;;;;;;;7.53;3.37;;;13.80;69.60;;;;;;5046430;28;20452;-73
2023/05/17 07:49:16;;;;;;;10.33;3.23;;;13.80;70.00;;;;;;5048716;28;20446;-73
2023/05/17 07:52:02;;;;;;;8.27;3.23;;;13.80;71.00;;;;;;5042260;28;20436;-72
2023/05/17 07:54:48;;;;;;;8.93;3.03;;;13.70;62.60;;;;;;5038946;28;20893;-72
2023/05/17 07:57:33;;;;;;;8.50;3.80;;;13.60;65.40;;;;;;5048529;28;20878;-72
2023/05/17 08:00:20;;;;;;;7.30;3.27;;;13.50;63.90;;;;;;5044494;28;20432;-73
2023/05/17 08:03:06;;;;;;;9.30;3.57;;;13.40;63.50;;;;;;5043426;28;20509;-73
2023/05/17 08:05:52;;;;;;;7.83;3.70;;;13.40;64.60;;;;;;5042913;28;20503;-73
2023/05/17 08:08:37;;;;;;;12.43;3.27;;;13.40;65.40;;;;;;5044339;28;20937;-73
2023/05/17 08:11:24;;;;;;;10.00;3.23;;;13.40;65.20;;;;;;5041362;28;20849;-73
2023/05/17 08:14:09;;;;;;;8.70;4.00;;;13.30;64.80;;;;;;5038856;28;20447;-71
2023/05/17 08:16:55;;;;;;;7.70;3.37;;;13.30;63.70;;;;;;5046662;28;20456;-71
2023/05/17 08:19:40;;;;;;;8.17;3.37;;;13.20;62.80;;;;;;5052245;28;20416;-71
2023/05/17 08:22:27;;;;;;;13.90;3.90;;;13.40;64.80;;;;;;5050159;28;20440;-71
2023/05/17 08:25:13;;;;;;;17.30;4.23;;;13.50;61.40;;;;;;5043011;28;20515;-72
2023/05/17 08:27:58;;;;;;;12.83;3.57;;;13.50;63.60;;;;;;5044586;28;20514;-71
2023/05/17 08:30:44;;;;;;;7.30;2.93;;;13.60;62.70;;;;;;5047190;28;20420;-71
2023/05/17 08:33:30;;;;;;;15.13;3.93;;;13.60;63.00;;;;;;5044511;28;20957;-71
2023/05/17 08:36:15;;;;;;;10.43;4.07;;;13.50;62.00;;;;;;5051989;28;20434;-71
2023/05/17 08:39:03;;;;;;;7.10;4.30;;;13.50;64.50;;;;;;5044531;28;20937;-71
2023/05/17 08:41:48;;;;;;;11.33;4.60;;;13.30;67.00;;;;;;5044489;28;20485;-71
2023/05/17 08:44:33;;;;;;;14.50;3.70;;;13.30;64.80;;;;;;5046100;28;20493;-71
2023/05/17 08:47:28;;;;;;;6.20;3.37;;;13.20;66.00;;;;;;5053852;28;20445;-71
2023/05/17 08:50:13;;;;;;;11.80;3.27;;;13.30;66.60;;;;;;5047837;28;20467;-71
2023/05/17 08:52:58;;;;;;;10.43;4.17;;;13.40;64.50;;;;;;5049437;28;20428;-70
2023/05/17 08:55:47;;;;;;;8.80;3.70;;;13.40;65.90;;;;;;5054959;28;20419;-71
2023/05/17 08:58:36;;;;;;;12.73;3.57;;;13.40;67.80;;;;;;5055734;28;20492;-71
2023/05/17 09:01:22;;;;;;;5.27;2.93;;;13.50;65.20;;;;;;5043695;28;20420;-71
2023/05/17 09:04:09;;;;;;;6.23;2.70;;;13.60;63.60;;;;;;5051080;28;20834;-70
2023/05/17 09:06:54;;;;;;;7.70;3.33;;;13.70;61.30;;;;;;5046600;28;20461;-71
2023/05/17 09:09:40;;;;;;;8.57;3.37;;;13.60;59.50;;;;;;5053867;28;20422;-70
2023/05/17 09:12:28;;;;;;;6.57;3.10;;;13.70;56.70;;;;;;5052229;28;20436;-71
2023/05/17 09:15:15;;;;;;;7.10;3.20;;;13.60;56.20;;;;;;5053015;28;20576;-71
2023/05/17 09:18:01;;;;;;;5.10;2.83;;;13.60;59.70;;;;;;5050736;28;20455;-71
2023/05/17 09:20:51;;;;;;;9.33;3.60;;;13.70;57.10;;;;;;5060216;28;20497;-71
2023/05/17 09:23:38;;;;;;;14.73;3.17;;;13.70;58.80;;;;;;5044059;28;20495;-71
2023/05/17 09:26:23;;;;;;;6.00;3.10;;;13.70;56.60;;;;;;5052798;28;20473;-71
2023/05/17 09:29:11;;;;;;;9.63;3.40;;;13.70;58.90;;;;;;5048951;28;20442;-70
2023/05/17 09:31:57;;;;;;;5.63;3.00;;;13.70;56.20;;;;;;5050083;28;20447;-71
2023/05/17 09:34:45;;;;;;;5.87;3.10;;;13.70;55.00;;;;;;5050425;28;20428;-70
2023/05/17 09:37:31;;;;;;;6.23;3.00;;;13.70;54.70;;;;;;5052132;28;20416;-69
2023/05/17 09:40:24;;;;;;;5.27;2.87;;;13.90;56.80;;;;;;5045766;28;20536;-71
2023/05/17 09:43:10;;;;;;;5.60;2.57;;;13.90;49.20;;;;;;5045683;28;20563;-71
2023/05/17 09:45:57;;;;;;;7.83;3.40;;;13.90;49.60;;;;;;5053395;28;20478;-71
2023/05/17 09:48:45;;;;;;;7.37;2.87;;;13.80;49.10;;;;;;5051307;28;20492;-72
2023/05/17 09:51:35;;;;;;;5.40;2.80;;;13.90;48.70;;;;;;5046327;28;21096;-72
2023/05/17 09:54:20;;;;;;;7.10;2.90;;;13.90;50.10;;;;;;5045618;28;20524;-72
2023/05/17 09:57:09;;;;;;;9.50;2.93;;;14.00;50.00;;;;;;5046148;28;20965;-72
2023/05/17 09:59:56;;;;;;;4.90;2.57;;;14.00;50.90;;;;;;5047588;28;20423;-69
2023/05/17 10:02:47;;;;;;;8.07;2.70;;;14.10;48.70;;;;;;5041603;28;20453;-71
2023/05/17 10:05:33;;;;;;;7.03;3.20;;;14.10;51.60;;;;;;5047998;28;20456;-70
2023/05/17 10:08:22;;;;;;;6.23;2.53;;;14.00;49.90;;;;;;5042091;28;21021;-70
2023/05/17 10:11:09;;;;;;;7.17;3.30;;;14.00;47.50;;;;;;5051317;28;20441;-70
2023/05/17 10:14:03;;;;;;;4.77;2.80;;;13.90;48.80;;;;;;5038784;28;20574;-70
2023/05/17 10:16:49;;;;;;;5.70;3.00;;;13.80;50.30;;;;;;5039885;28;20424;-70
2023/05/17 10:19:37;;;;;;;11.60;3.60;;;13.70;47.80;;;;;;5048196;28;20449;-71
2023/05/17 10:22:23;;;;;;;12.30;3.10;;;13.60;48.60;;;;;;5043028;28;20521;-70
2023/05/17 10:25:09;;;;;;;7.90;3.37;;;13.60;51.60;;;;;;5039458;28;20513;-71
2023/05/17 10:27:55;;;;;;;10.87;3.90;;;13.60;51.20;;;;;;5045068;28;20462;-70
2023/05/17 10:30:42;;;;;;;5.20;3.30;;;13.70;51.50;;;;;;5043716;28;20424;-71
2023/05/17 10:33:27;;;;;;;16.23;3.50;;;13.90;49.40;;;;;;5043660;28;21160;-72
2023/05/17 10:36:17;;;;;;;7.30;3.23;;;13.90;51.90;;;;;;5040339;28;20535;-70
2023/05/17 10:39:06;;;;;;;8.80;3.57;;;13.90;48.50;;;;;;5049545;28;20523;-70
2023/05/17 10:41:54;;;;;;;8.50;3.13;;;14.00;51.30;;;;;;5042061;28;20506;-72
2023/05/17 10:44:40;;;;;;;5.10;3.00;;;14.00;47.10;;;;;;5037667;28;20439;-70
2023/05/17 10:47:33;;;;;;;7.90;3.13;;;14.00;46.90;;;;;;5038201;28;20635;-71
2023/05/17 10:50:23;;;;;;;7.80;3.40;;;14.10;46.20;;;;;;5047410;28;20444;-71
2023/05/17 10:53:15;;;;;;;6.87;3.17;;;14.20;47.10;;;;;;5035623;28;20467;-72
2023/05/17 10:56:04;;;;;;;10.40;3.57;;;14.40;46.80;;;;;;5040863;28;20426;-72
2023/05/17 10:59:22;;;;;;;8.23;3.23;;;14.60;47.50;;;;;;5057808;28;20456;-70
2023/05/17 11:02:12;;;;;;;10.53;3.23;;;14.80;43.40;;;;;;5047195;28;20561;-71
2023/05/17 11:04:59;;;;;;;8.10;2.90;;;14.80;41.80;;;;;;5042711;28;20420;-71
2023/05/17 11:07:51;;;;;;;7.87;3.03;;;14.80;42.30;;;;;;5042188;28;20565;-71
2023/05/17 11:10:42;;;;;;;7.07;3.00;;;14.70;38.80;;;;;;5050617;28;20522;-71
2023/05/17 11:13:34;;;;;;;12.83;3.40;;;14.50;40.60;;;;;;5045227;28;21142;-71
2023/05/17 11:16:25;;;;;;;9.77;3.77;;;14.60;44.60;;;;;;5054617;28;20507;-71
2023/05/17 11:19:12;;;;;;;11.30;4.30;;;14.70;43.50;;;;;;5049308;28;20444;-71
2023/05/17 11:22:10;;;;;;;7.20;3.40;;;14.80;44.50;;;;;;5057238;28;20583;-72
2023/05/17 11:24:58;;;;;;;7.90;3.00;;;14.80;43.90;;;;;;5045597;28;20475;-71
2023/05/17 11:27:55;;;;;;;11.07;3.53;;;14.80;44.30;;;;;;5051579;28;20438;-72
2023/05/17 11:30:49;;;;;;;8.33;3.53;;;14.80;44.30;;;;;;5040151;28;20421;-72
2023/05/17 11:33:42;;;;;;;8.90;3.40;;;14.80;42.10;;;;;;5045597;28;20470;-72
2023/05/17 11:36:27;;;;;;;7.60;3.30;;;14.80;44.90;;;;;;5039282;28;21001;-73
2023/05/17 11:39:17;;;;;;;7.03;3.17;;;14.80;41.40;;;;;;5042002;28;20772;-72
2023/05/17 11:42:26;;;;;;;9.00;3.53;;;14.90;43.70;;;;;;5035530;28;20486;-73
2023/05/17 11:45:18;;;;;;;10.60;4.43;;;15.00;44.70;;;;;;5037563;28;20503;-72
2023/05/17 11:48:10;;;;;;;5.53;3.17;;;15.30;40.90;;;;;;5039117;28;21034;-72
2023/05/17 11:50:59;;;;;;;10.57;4.17;;;15.40;39.30;;;;;;5051134;28;20580;-72
2023/05/17 11:53:48;;;;;;;10.73;4.37;;;15.40;38.10;;;;;;5046322;28;20482;-72
2023/05/17 11:56:39;;;;;;;7.20;3.10;;;15.50;41.70;;;;;;5055101;28;20448;-73
2023/05/17 11:59:28;;;;;;;10.40;3.50;;;15.60;38.30;;;;;;5046177;28;20430;-72
2023/05/17 12:02:29;;;;;;;8.77;4.07;;;15.50;32.90;;;;;;5041814;28;20522;-73
2023/05/17 12:05:20;;;;;;;11.17;3.40;;;15.40;36.50;;;;;;5049461;28;20865;-73
2023/05/17 12:08:09;;;;;;;5.60;3.13;;;15.60;35.80;;;;;;5044603;28;20429;-73
2023/05/17 12:11:00;;;;;;;11.57;3.13;;;15.70;39.30;;;;;;5048767;28;20433;-74
2023/05/17 12:13:50;;;;;;;14.83;4.03;;;15.70;36.50;;;;;;5054969;28;20491;-73
2023/05/17 12:16:41;;;;;;;7.07;3.20;;;15.80;34.40;;;;;;5059164;28;20443;-74
2023/05/17 12:19:33;;;;;;;8.73;3.20;;;15.80;38.30;;;;;;5045139;28;20937;-73
2023/05/17 12:22:24;;;;;;;15.03;4.17;;;16.10;35.40;;;;;;5052512;28;20860;-74
2023/05/17 12:25:22;;;;;;;7.40;3.27;;;16.30;33.40;;;;;;5052732;28;20930;-74
2023/05/17 12:28:26;;;;;;;7.73;3.27;;;16.60;33.30;;;;;;5056851;28;21431;-73
2023/05/17 12:31:28;;;;;;;9.37;3.30;;;16.80;32.60;;;;;;5048248;28;20488;-74
2023/05/17 12:34:21;;;;;;;7.23;3.40;;;16.90;33.30;;;;;;5049190;28;20933;-73
2023/05/17 12:37:12;;;;;;;14.23;3.47;;;16.80;29.90;;;;;;5050636;28;20679;-73
2023/05/17 12:40:04;;;;;;;7.13;3.37;;;16.70;30.60;;;;;;5052712;28;20532;-73
2023/05/17 12:42:50;;;;;;;7.20;3.83;;;16.70;30.10;;;;;;5041672;28;21059;-73
2023/05/17 12:45:49;;;;;;;7.53;3.40;;;16.90;30.50;;;;;;5051068;28;20444;-73
2023/05/17 12:48:39;;;;;;;7.70;3.10;;;17.20;28.80;;;;;;5046740;28;20484;-73
2023/05/17 12:51:28;;;;;;;7.07;3.03;;;17.30;28.50;;;;;;5040542;28;20467;-73
2023/05/17 12:54:31;;;;;;;8.30;2.77;;;17.10;27.70;;;;;;5043459;28;20445;-72
2023/05/17 12:57:19;;;;;;;9.87;2.80;;;16.80;27.00;;;;;;5045578;28;20563;-72
2023/05/17 13:00:10;;;;;;;9.57;5.70;;;16.60;28.90;;;;;;5042064;28;20459;-73
2023/05/17 13:02:59;;;;;;;10.53;4.30;;;16.50;28.50;;;;;;5044908;28;20449;-73
2023/05/17 13:05:58;;;;;;;5.53;3.03;;;16.50;29.60;;;;;;5046309;28;20968;-73
2023/05/17 13:08:44;;;;;;;8.20;3.93;;;16.60;30.70;;;;;;5047268;28;20580;-72
2023/05/17 13:11:41;;;;;;;6.97;3.40;;;16.80;32.40;;;;;;5048428;28;20602;-73
2023/05/17 13:14:41;;;;;;;17.60;4.20;;;16.80;28.60;;;;;;5053524;28;20413;-73
2023/05/17 13:17:45;;;;;;;7.37;3.37;;;16.80;28.50;;;;;;5064266;28;20457;-73
2023/05/17 13:20:39;;;;;;;7.60;3.40;;;16.70;28.80;;;;;;5044478;28;20445;-73
2023/05/17 13:23:28;;;;;;;7.67;2.87;;;16.60;29.90;;;;;;5057509;28;20830;-71
2023/05/17 13:26:16;;;;;;;8.73;2.70;;;16.30;30.40;;;;;;5060340;28;20474;-73
2023/05/17 13:29:06;;;;;;;5.80;2.70;;;16.40;29.90;;;;;;5046083;28;20420;-72
2023/05/17 13:31:57;;;;;;;8.20;2.90;;;16.60;30.00;;;;;;5039343;28;20441;-72
2023/05/17 13:34:44;;;;;;;7.47;3.37;;;16.70;29.40;;;;;;5048618;28;21209;-72
2023/05/17 13:37:34;;;;;;;4.33;2.43;;;16.80;29.70;;;;;;5044452;28;20938;-73
2023/05/17 13:40:22;;;;;;;11.10;3.20;;;16.90;27.60;;;;;;5042185;28;20941;-72
2023/05/17 13:43:11;;;;;;;10.30;3.70;;;17.00;31.40;;;;;;5037353;28;20453;-72
2023/05/17 13:46:01;;;;;;;7.13;4.03;;;16.90;29.20;;;;;;5048304;28;20965;-73
2023/05/17 13:48:48;;;;;;;5.53;2.70;;;16.90;29.50;;;;;;5041706;28;20429;-72
2023/05/17 13:51:38;;;;;;;10.43;3.10;;;17.10;28.90;;;;;;5034947;28;20976;-72
2023/05/17 13:54:24;;;;;;;11.80;3.33;;;17.00;28.70;;;;;;5053932;28;21018;-72
2023/05/17 13:57:18;;;;;;;7.00;3.20;;;17.00;28.10;;;;;;5039233;28;20983;-71
2023/05/17 14:00:09;;;;;;;6.60;3.00;;;16.80;29.60;;;;;;5032752;28;20564;-71
2023/05/17 14:02:57;;;;;;;9.20;3.50;;;16.60;29.60;;;;;;5050339;28;20457;-71
2023/05/17 14:05:46;;;;;;;8.40;3.60;;;16.50;29.90;;;;;;5044970;28;20452;-71
2023/05/17 14:08:34;;;;;;;9.47;2.90;;;16.40;29.70;;;;;;5041391;28;20542;-71
2023/05/17 14:11:29;;;;;;;9.23;3.17;;;16.30;30.50;;;;;;5045554;28;20994;-72
2023/05/17 14:14:17;;;;;;;11.30;3.07;;;16.40;32.40;;;;;;5053307;28;20882;-72
2023/05/17 14:17:06;;;;;;;7.30;3.27;;;16.80;28.50;;;;;;5042163;28;20435;-72
2023/05/17 14:19:56;;;;;;;5.50;2.80;;;17.00;28.80;;;;;;5041189;28;20455;-71
2023/05/17 14:22:42;;;;;;;7.20;2.87;;;17.30;27.70;;;;;;5037769;28;20453;-72
2023/05/17 14:25:28;;;;;;;4.50;2.70;;;17.40;24.30;;;;;;5040034;28;20479;-72
2023/05/17 14:28:17;;;;;;;9.90;3.10;;;17.50;24.30;;;;;;5031958;28;20624;-72
2023/05/17 14:31:09;;;;;;;9.93;2.87;;;17.50;24.90;;;;;;5041296;28;20447;-73
2023/05/17 14:34:00;;;;;;;7.80;3.13;;;17.60;26.10;;;;;;5033769;28;20448;-71